Time;durP1;ratioP1;P1;durP2;ratioP2;P2;SDS_P1;SDS_P2;PMS_P1;PMS_P2;Temp;Humidity;BMP_temperature;BMP_pressure;BME280_temperature;BME280_humidity;BME280_pressure;Samples;Min_cycle;Max_cycle;Signal;HPM_P1;HPM_P2
2023/05/23 00:02:17;;;;;;;17.90;10.30;;;;;;;17.13;81.16;99920.91;5041666;28;20118;-73
2023/05/23 00:04:43;;;;;;;17.67;10.73;;;;;;;17.04;81.79;99901.47;5041141;28;20029;-74
2023/05/23 00:07:08;;;;;;;20.33;11.43;;;;;;;17.21;81.03;99918.56;5040708;28;20277;-74
2023/05/23 00:09:33;;;;;;;25.83;12.43;;;;;;;17.36;79.87;99904.50;5041000;28;20036;-74
2023/05/23 00:11:59;;;;;;;19.47;10.83;;;;;;;17.18;79.68;99902.66;5041525;28;20052;-74
2023/05/23 00:14:25;;;;;;;18.73;11.07;;;;;;;17.00;81.34;99913.44;5041807;28;20381;-74
2023/05/23 00:16:50;;;;;;;18.10;12.55;;;;;;;17.01;80.36;99901.28;5041590;28;20543;-74
2023/05/23 00:19:16;;;;;;;21.58;12.77;;;;;;;16.99;80.45;99903.53;5041735;28;20108;-74
2023/05/23 00:21:42;;;;;;;19.10;11.75;;;;;;;16.99;80.46;99909.03;5041163;28;20052;-74
2023/05/23 00:24:09;;;;;;;18.92;11.85;;;;;;;17.07;80.14;99905.56;5041785;28;20048;-74
2023/05/23 00:26:35;;;;;;;16.00;10.30;;;;;;;17.08;79.44;99915.47;5041563;28;20468;-74
2023/05/23 00:29:00;;;;;;;18.13;11.50;;;;;;;17.05;80.10;99924.34;5042901;28;20090;-74
2023/05/23 00:31:26;;;;;;;19.88;10.95;;;;;;;17.00;80.52;99921.69;5044875;28;20037;-74
2023/05/23 00:33:51;;;;;;;19.02;12.10;;;;;;;16.77;81.33;99916.88;5044959;28;20029;-74
2023/05/23 00:36:17;;;;;;;14.88;10.60;;;;;;;16.69;81.07;99921.13;5045281;28;20045;-75
2023/05/23 00:38:44;;;;;;;17.30;9.73;;;;;;;16.43;81.12;99913.31;5044542;28;20123;-74
2023/05/23 00:41:10;;;;;;;17.98;11.27;;;;;;;16.32;82.02;99917.34;5044680;28;20033;-75
2023/05/23 00:43:35;;;;;;;18.40;11.48;;;;;;;16.34;81.46;99932.44;5045205;28;20087;-74
2023/05/23 00:46:01;;;;;;;16.40;12.00;;;;;;;16.64;80.40;99934.97;5044896;28;20035;-74
2023/05/23 00:48:26;;;;;;;16.25;10.55;;;;;;;16.48;80.60;99933.59;5044357;28;20102;-74
2023/05/23 00:50:53;;;;;;;18.60;11.68;;;;;;;16.41;80.75;99942.25;5044441;28;20486;-74
2023/05/23 00:53:19;;;;;;;20.90;12.10;;;;;;;16.47;81.41;99948.50;5044944;28;20028;-74
2023/05/23 00:55:44;;;;;;;15.90;10.68;;;;;;;16.65;80.41;99942.13;5044755;28;20091;-74
2023/05/23 00:58:10;;;;;;;13.15;8.70;;;;;;;16.58;80.04;99944.44;5044116;28;20460;-74
2023/05/23 01:00:37;;;;;;;12.45;8.00;;;;;;;16.39;80.76;99948.06;5044879;28;20055;-74
2023/05/23 01:03:03;;;;;;;13.20;8.52;;;;;;;16.50;80.20;99956.13;5044327;28;20041;-74
2023/05/23 01:05:29;;;;;;;14.20;7.50;;;;;;;16.50;80.17;99956.94;5044684;28;20036;-75
2023/05/23 01:07:54;;;;;;;9.32;5.70;;;;;;;16.52;79.74;99953.91;5043745;28;20045;-75
2023/05/23 01:10:26;;;;;;;10.40;6.45;;;;;;;16.61;79.39;99956.78;5044542;28;20436;-74
2023/05/23 01:13:04;;;;;;;9.75;5.53;;;;;;;16.51;78.06;99946.78;5044178;28;20486;-74
2023/05/23 01:15:48;;;;;;;11.18;7.13;;;;;;;16.45;78.40;99948.78;5044456;28;20495;-74
2023/05/23 01:18:20;;;;;;;10.57;5.93;;;;;;;16.54;77.72;99951.66;5043933;28;20075;-75
2023/05/23 01:20:53;;;;;;;11.25;6.15;;;;;;;16.69;78.04;99959.69;5044008;28;20098;-74
2023/05/23 01:23:29;;;;;;;10.77;6.25;;;;;;;16.79;77.43;99957.84;5044865;28;20037;-74
2023/05/23 01:26:03;;;;;;;9.90;5.20;;;;;;;16.77;77.53;99952.66;5043855;28;20131;-74
2023/05/23 01:28:54;;;;;;;11.13;5.55;;;;;;;16.66;77.94;99949.25;5043375;28;20470;-74
2023/05/23 01:31:23;;;;;;;10.45;5.93;;;;;;;16.74;77.92;99946.94;5043802;28;20498;-74
2023/05/23 01:33:52;;;;;;;12.93;7.22;;;;;;;16.86;77.20;99950.00;5044138;28;20033;-75
2023/05/23 01:36:17;;;;;;;10.60;6.38;;;;;;;16.75;77.70;99952.16;5043697;28;20029;-74
2023/05/23 01:38:43;;;;;;;10.10;6.13;;;;;;;16.85;77.71;99958.56;5043306;28;20154;-74
2023/05/23 01:41:08;;;;;;;9.10;5.80;;;;;;;16.98;76.56;99949.53;5043596;28;20052;-74
2023/05/23 01:43:33;;;;;;;10.57;6.07;;;;;;;17.00;76.92;99947.28;5043892;28;20412;-75
2023/05/23 01:46:00;;;;;;;9.25;5.43;;;;;;;16.84;77.00;99949.50;5043541;28;20269;-74
2023/05/23 01:48:28;;;;;;;13.52;6.57;;;;;;;16.85;77.08;99951.13;5043456;28;20120;-74
2023/05/23 01:50:55;;;;;;;10.45;6.05;;;;;;;16.85;77.04;99953.91;5043411;28;20120;-75
2023/05/23 01:53:23;;;;;;;13.18;7.95;;;;;;;16.86;77.39;99961.03;5043697;28;20121;-74
2023/05/23 01:55:49;;;;;;;9.35;5.82;;;;;;;16.89;77.50;99954.91;5043419;28;20029;-74
2023/05/23 01:58:15;;;;;;;9.63;6.13;;;;;;;16.85;77.21;99953.91;5042997;28;20033;-74
2023/05/23 02:00:40;;;;;;;8.23;4.75;;;;;;;16.88;76.91;99953.28;5043499;28;20025;-75
2023/05/23 02:03:05;;;;;;;9.55;5.20;;;;;;;16.74;77.63;99955.19;5043380;28;20063;-74
2023/05/23 02:05:31;;;;;;;11.40;6.00;;;;;;;16.73;77.77;99964.56;5042881;28;20032;-75
2023/05/23 02:07:56;;;;;;;9.57;5.68;;;;;;;16.81;77.86;99950.13;5043148;28;20037;-74
2023/05/23 02:10:22;;;;;;;17.90;6.57;;;;;;;16.70;77.60;99960.47;5043332;28;20069;-75
2023/05/23 02:12:47;;;;;;;12.18;7.65;;;;;;;16.75;77.92;99965.91;5042677;28;20258;-74
2023/05/23 02:15:12;;;;;;;14.98;8.20;;;;;;;16.73;77.46;99964.56;5043393;28;20433;-74
2023/05/23 02:17:38;;;;;;;12.95;6.70;;;;;;;16.81;77.30;99966.63;5043213;28;20465;-74
2023/05/23 02:20:05;;;;;;;12.60;6.97;;;;;;;16.75;77.82;99963.16;5040883;28;20540;-74
2023/05/23 02:22:30;;;;;;;11.30;7.20;;;;;;;16.77;77.68;99966.41;5043255;28;20270;-74
2023/05/23 02:24:56;;;;;;;15.30;7.55;;;;;;;16.76;78.07;99961.22;5041085;28;20033;-74
2023/05/23 02:27:21;;;;;;;11.63;7.20;;;;;;;16.67;78.07;99966.59;5043471;28;20037;-76
2023/05/23 02:29:46;;;;;;;12.90;7.10;;;;;;;16.66;78.29;99964.94;5042603;28;20270;-74
2023/05/23 02:32:11;;;;;;;11.60;7.27;;;;;;;16.47;79.02;99962.25;5042788;28;21155;-76
2023/05/23 02:34:37;;;;;;;14.38;8.55;;;;;;;16.59;79.00;99962.59;5043460;28;20258;-74
2023/05/23 02:37:02;;;;;;;13.18;7.97;;;;;;;16.74;78.32;99960.72;5042635;28;20051;-74
2023/05/23 02:39:27;;;;;;;12.02;7.55;;;;;;;16.71;78.43;99962.13;5042548;28;20028;-74
2023/05/23 02:41:53;;;;;;;13.27;7.57;;;;;;;16.72;78.49;99968.44;5042257;28;20715;-74
2023/05/23 02:44:18;;;;;;;13.07;7.60;;;;;;;16.68;78.68;99971.78;5043102;28;20086;-74
2023/05/23 02:46:44;;;;;;;14.35;8.65;;;;;;;16.73;78.13;99975.56;5042595;28;20033;-74
2023/05/23 02:49:09;;;;;;;13.82;8.52;;;;;;;16.44;79.18;99975.47;5042062;28;20029;-74
2023/05/23 02:51:35;;;;;;;13.30;8.45;;;;;;;16.64;79.23;99976.25;5042614;28;20035;-74
2023/05/23 02:54:00;;;;;;;12.10;8.17;;;;;;;16.53;79.23;99972.06;5043434;28;20112;-74
2023/05/23 02:56:26;;;;;;;15.93;10.47;;;;;;;16.43;79.70;99971.09;5042957;28;20258;-74
2023/05/23 02:58:52;;;;;;;13.55;8.85;;;;;;;16.54;79.82;99981.94;5041816;28;20651;-74
2023/05/23 03:01:17;;;;;;;14.50;8.85;;;;;;;16.47;80.17;99970.50;5042493;28;20033;-74
2023/05/23 03:03:42;;;;;;;15.45;10.45;;;;;;;16.53;80.10;99970.13;5042347;28;20542;-74
2023/05/23 03:06:09;;;;;;;13.87;9.57;;;;;;;16.43;80.46;99978.53;5042357;28;20445;-74
2023/05/23 03:08:35;;;;;;;17.55;9.75;;;;;;;16.56;80.64;99983.28;5042202;28;20037;-74
2023/05/23 03:11:00;;;;;;;16.50;9.05;;;;;;;16.56;80.45;99976.94;5041983;28;20040;-74
2023/05/23 03:13:25;;;;;;;16.23;9.13;;;;;;;16.58;80.53;99980.22;5042051;28;20041;-74
2023/05/23 03:15:50;;;;;;;15.37;11.03;;;;;;;16.57;80.80;99981.34;5041900;28;20294;-74
2023/05/23 03:18:15;;;;;;;15.37;10.53;;;;;;;16.56;80.66;99977.78;5042317;28;20281;-75
2023/05/23 03:20:41;;;;;;;14.97;9.77;;;;;;;16.47;80.94;99976.00;5041509;28;20056;-74
2023/05/23 03:23:06;;;;;;;19.60;9.77;;;;;;;16.43;81.79;99981.28;5042344;28;20025;-74
2023/05/23 03:25:31;;;;;;;14.52;10.55;;;;;;;16.43;81.48;99984.84;5042036;28;20063;-74
2023/05/23 03:27:57;;;;;;;16.15;10.77;;;;;;;16.37;81.60;99980.56;5041509;28;20471;-74
2023/05/23 03:30:22;;;;;;;15.87;10.53;;;;;;;16.49;81.15;99979.28;5042067;28;20033;-74
2023/05/23 03:32:48;;;;;;;17.15;10.93;;;;;;;16.34;81.55;99979.22;5042367;28;20075;-74
2023/05/23 03:35:13;;;;;;;23.50;11.05;;;;;;;16.24;81.41;99976.63;5042116;28;20044;-74
2023/05/23 03:37:39;;;;;;;18.10;9.63;;;;;;;16.28;80.69;99987.84;5041692;28;20045;-74
2023/05/23 03:40:06;;;;;;;20.60;10.20;;;;;;;16.45;80.20;99990.84;5041588;28;20361;-75
2023/05/23 03:42:31;;;;;;;18.48;9.98;;;;;;;16.40;79.99;99985.44;5041788;28;20036;-74
2023/05/23 03:44:57;;;;;;;20.17;10.32;;;;;;;16.22;80.32;99985.16;5041813;28;20485;-74
2023/05/23 03:47:23;;;;;;;13.70;9.07;;;;;;;16.29;80.70;99997.72;5042112;28;20067;-74
2023/05/23 03:49:48;;;;;;;13.93;8.27;;;;;;;16.08;81.33;100000.78;5041514;28;20119;-74
2023/05/23 03:52:13;;;;;;;14.13;9.05;;;;;;;16.17;80.41;99987.97;5041954;28;20593;-74
2023/05/23 03:54:39;;;;;;;13.80;8.23;;;;;;;16.03;80.66;99998.91;5042019;28;20037;-75
2023/05/23 03:57:04;;;;;;;14.67;7.90;;;;;;;16.15;80.62;100011.41;5042050;28;20418;-74
2023/05/23 03:59:29;;;;;;;16.65;8.68;;;;;;;15.92;80.97;100008.38;5041235;28;20045;-74
2023/05/23 04:01:57;;;;;;;14.10;7.53;;;;;;;16.05;80.41;100020.63;5041675;28;20452;-75
2023/05/23 04:04:23;;;;;;;15.77;7.28;;;;;;;15.98;80.43;100030.03;5044875;28;20624;-75
2023/05/23 04:06:49;;;;;;;14.32;7.43;;;;;;;15.85;80.75;100036.22;5045680;28;20036;-74
2023/05/23 04:09:14;;;;;;;14.52;8.88;;;;;;;15.86;81.45;100015.88;5044642;28;20044;-74
2023/05/23 04:11:40;;;;;;;13.55;6.82;;;;;;;15.71;80.92;100030.63;5045536;28;20036;-75
2023/05/23 04:14:06;;;;;;;14.68;8.35;;;;;;;15.86;80.92;100032.38;5045595;28;20410;-74
2023/05/23 04:16:32;;;;;;;15.07;6.82;;;;;;;15.96;80.88;100037.75;5045654;28;20032;-74
2023/05/23 04:18:58;;;;;;;15.18;8.13;;;;;;;15.96;80.66;100031.41;5044840;28;20036;-74
2023/05/23 04:21:23;;;;;;;14.85;8.25;;;;;;;16.02;80.91;100032.19;5045336;28;20309;-74
2023/05/23 04:23:49;;;;;;;17.77;8.87;;;;;;;16.16;80.62;100027.63;5045195;28;20505;-74
2023/05/23 04:26:14;;;;;;;14.77;9.57;;;;;;;16.29;79.96;100030.75;5045277;28;20258;-74
2023/05/23 04:28:39;;;;;;;22.60;9.70;;;;;;;16.37;79.41;100040.25;5044763;28;20094;-74
2023/05/23 04:31:04;;;;;;;15.43;9.27;;;;;;;16.39;79.07;100043.53;5044981;28;20033;-75
2023/05/23 04:33:30;;;;;;;16.50;11.27;;;;;;;16.40;79.71;100034.97;5045199;28;20648;-74
2023/05/23 04:35:56;;;;;;;17.38;10.45;;;;;;;16.48;79.28;100036.22;5044516;28;20674;-74
2023/05/23 04:38:23;;;;;;;15.82;9.65;;;;;;;16.50;79.57;100035.94;5044973;28;20040;-74
2023/05/23 04:40:49;;;;;;;15.30;9.25;;;;;;;16.47;79.71;100031.03;5044757;28;20417;-74
2023/05/23 04:43:15;;;;;;;17.00;9.25;;;;;;;16.45;79.90;100036.84;5043696;28;20041;-75
2023/05/23 04:45:40;;;;;;;15.45;9.57;;;;;;;16.40;80.00;100040.47;5044833;28;20033;-74
2023/05/23 04:48:06;;;;;;;16.13;11.05;;;;;;;16.13;80.40;100044.69;5044352;28;20446;-75
2023/05/23 04:50:34;;;;;;;16.48;9.68;;;;;;;16.17;80.83;100042.97;5045072;28;20147;-74
2023/05/23 04:52:59;;;;;;;21.25;12.70;;;;;;;16.41;79.88;100052.31;5044537;28;20032;-74
2023/05/23 04:55:25;;;;;;;17.83;11.37;;;;;;;16.21;79.92;100051.50;5044351;28;20033;-74
2023/05/23 04:57:50;;;;;;;22.92;12.73;;;;;;;16.31;79.51;100053.28;5044451;28;20077;-74
2023/05/23 05:00:16;;;;;;;16.37;10.60;;;;;;;16.08;79.59;100061.28;5044422;28;20524;-74
2023/05/23 05:02:41;;;;;;;20.25;12.35;;;;;;;16.14;80.71;100054.59;5044348;28;20032;-73
2023/05/23 05:05:07;;;;;;;19.10;11.43;;;;;;;16.38;79.46;100048.22;5044678;28;20039;-74
2023/05/23 05:07:34;;;;;;;19.65;12.10;;;;;;;16.26;79.85;100058.81;5044353;28;20042;-75
2023/05/23 05:09:59;;;;;;;15.27;9.50;;;;;;;16.19;80.50;100060.00;5044074;28;20037;-74
2023/05/23 05:12:25;;;;;;;18.13;10.82;;;;;;;16.30;80.54;100057.13;5044732;28;20367;-74
2023/05/23 05:14:50;;;;;;;17.20;11.00;;;;;;;16.29;80.61;100055.50;5043921;28;20139;-74
2023/05/23 05:17:15;;;;;;;19.17;10.23;;;;;;;16.36;80.40;100060.63;5044419;28;20261;-74
2023/05/23 05:19:41;;;;;;;15.98;9.60;;;;;;;16.38;80.67;100056.47;5043793;28;20040;-74
2023/05/23 05:22:06;;;;;;;19.57;9.27;;;;;;;16.26;80.35;100056.06;5044091;28;20199;-73
2023/05/23 05:24:32;;;;;;;16.88;9.48;;;;;;;16.31;80.17;100062.31;5044708;28;20261;-75
2023/05/23 05:26:57;;;;;;;18.67;10.52;;;;;;;16.32;79.92;100054.91;5044164;28;20162;-75
2023/05/23 05:29:22;;;;;;;24.20;10.67;;;;;;;16.16;80.53;100068.88;5043898;28;20048;-75
2023/05/23 05:31:48;;;;;;;18.40;10.20;;;;;;;15.90;81.28;100082.09;5044203;28;20284;-73
2023/05/23 05:34:13;;;;;;;20.17;9.70;;;;;;;15.96;81.59;100076.25;5042459;28;20266;-74
2023/05/23 05:36:44;;;;;;;20.07;10.80;;;;;;;15.85;81.22;100080.19;5044114;28;20257;-75
2023/05/23 05:39:10;;;;;;;21.40;11.98;;;;;;;15.90;80.81;100084.84;5043327;28;20674;-74
2023/05/23 05:41:36;;;;;;;22.35;12.82;;;;;;;16.17;80.42;100084.25;5043716;28;20068;-74
2023/05/23 05:44:01;;;;;;;16.65;10.63;;;;;;;16.28;79.31;100081.34;5043993;28;20485;-74
2023/05/23 05:46:26;;;;;;;19.37;13.67;;;;;;;16.13;80.42;100087.91;5043577;28;20032;-74
2023/05/23 05:48:51;;;;;;;21.40;15.10;;;;;;;16.08;80.43;100083.25;5043189;28;20616;-74
2023/05/23 05:51:17;;;;;;;21.50;12.80;;;;;;;16.17;80.09;100089.75;5043444;28;20048;-74
2023/05/23 05:53:42;;;;;;;22.05;11.55;;;;;;;16.22;80.10;100094.38;5042951;28;20908;-74
2023/05/23 05:56:08;;;;;;;23.27;13.03;;;;;;;16.03;80.07;100099.84;5043661;28;20131;-74
2023/05/23 05:58:33;;;;;;;20.70;11.98;;;;;;;15.81;80.80;100096.47;5043361;28;20670;-74
2023/05/23 06:00:58;;;;;;;26.98;12.20;;;;;;;15.88;80.93;100101.63;5043054;28;20041;-74
2023/05/23 06:03:24;;;;;;;21.75;12.68;;;;;;;15.96;80.51;100105.66;5043589;28;20072;-74
2023/05/23 06:05:49;;;;;;;24.35;13.02;;;;;;;16.02;80.50;100100.94;5042851;28;20466;-74
2023/05/23 06:08:14;;;;;;;23.00;11.57;;;;;;;15.97;80.42;100105.34;5042752;28;20044;-75
2023/05/23 06:10:40;;;;;;;23.83;14.33;;;;;;;15.95;80.69;100104.81;5043181;28;20288;-74
2023/05/23 06:13:05;;;;;;;19.23;12.60;;;;;;;16.05;80.39;100103.13;5042860;28;20316;-74
2023/05/23 06:15:30;;;;;;;25.98;13.20;;;;;;;16.10;79.76;100098.38;5042913;28;20945;-73
2023/05/23 06:17:55;;;;;;;19.00;10.33;;;;;;;16.08;79.80;100094.28;5041788;28;20045;-74
2023/05/23 06:20:21;;;;;;;21.17;12.43;;;;;;;15.88;80.16;100107.13;5043236;28;20282;-75
2023/05/23 06:22:46;;;;;;;22.27;11.23;;;;;;;15.59;81.14;100108.78;5042850;28;20757;-75
2023/05/23 06:25:11;;;;;;;17.73;11.03;;;;;;;15.72;80.86;100115.50;5042436;28;20262;-76
2023/05/23 06:27:37;;;;;;;19.67;9.85;;;;;;;15.83;79.80;100115.41;5042333;28;20693;-75
2023/05/23 06:30:04;;;;;;;19.85;11.55;;;;;;;15.82;79.84;100113.78;5041655;28;20044;-75
2023/05/23 06:32:29;;;;;;;21.50;11.27;;;;;;;15.90;80.34;100110.41;5042441;28;20060;-77
2023/05/23 06:34:54;;;;;;;19.80;10.50;;;;;;;15.87;79.66;100117.28;5042203;28;20037;-76
2023/05/23 06:37:19;;;;;;;20.67;11.43;;;;;;;15.82;79.98;100120.13;5042565;28;20335;-76
2023/05/23 06:39:45;;;;;;;18.27;9.48;;;;;;;15.91;79.79;100123.03;5042099;28;20285;-75
2023/05/23 06:42:10;;;;;;;25.53;9.97;;;;;;;15.41;81.04;100118.59;5042006;28;20079;-76
2023/05/23 06:44:35;;;;;;;16.93;8.93;;;;;;;15.69;80.23;100127.09;5041060;28;20032;-76
2023/05/23 06:47:00;;;;;;;16.83;9.23;;;;;;;15.68;79.79;100116.41;5042121;28;20292;-76
2023/05/23 06:49:26;;;;;;;14.57;7.73;;;;;;;15.63;80.70;100128.25;5041928;28;20301;-77
2023/05/23 06:51:51;;;;;;;14.80;8.43;;;;;;;15.44;80.79;100126.22;5041786;28;20289;-76
2023/05/23 06:54:17;;;;;;;17.67;8.25;;;;;;;15.60;80.25;100126.91;5042660;28;20397;-76
2023/05/23 06:56:42;;;;;;;15.70;8.45;;;;;;;15.61;79.19;100130.47;5042207;28;20127;-77
2023/05/23 06:59:07;;;;;;;13.83;8.50;;;;;;;15.63;79.06;100136.50;5041365;28;20367;-75
2023/05/23 07:01:33;;;;;;;18.57;7.97;;;;;;;15.75;78.71;100150.69;5041052;28;20278;-73
2023/05/23 07:03:58;;;;;;;14.93;7.95;;;;;;;15.84;78.24;100141.81;5041642;28;20270;-74
2023/05/23 07:06:26;;;;;;;17.57;8.23;;;;;;;15.80;78.32;100152.56;5042177;28;20033;-75
2023/05/23 07:08:52;;;;;;;13.90;8.60;;;;;;;15.40;78.75;100152.63;5040841;28;20358;-75
2023/05/23 07:11:17;;;;;;;13.15;7.93;;;;;;;15.58;78.83;100159.34;5041897;28;20196;-74
2023/05/23 07:13:42;;;;;;;14.80;9.65;;;;;;;15.52;78.92;100161.34;5042137;28;20033;-75
2023/05/23 07:16:08;;;;;;;16.60;10.60;;;;;;;15.45;78.11;100155.38;5040478;28;20183;-74
2023/05/23 07:18:33;;;;;;;20.10;11.57;;;;;;;15.51;78.40;100165.19;5042044;28;20762;-76
2023/05/23 07:20:58;;;;;;;17.87;9.87;;;;;;;15.25;78.99;100161.84;5042263;28;20056;-75
2023/05/23 07:23:24;;;;;;;19.77;9.07;;;;;;;15.49;78.51;100167.41;5042498;28;20263;-75
2023/05/23 07:25:49;;;;;;;17.35;8.63;;;;;;;15.20;78.62;100165.44;5041015;28;20751;-75
2023/05/23 07:28:15;;;;;;;15.13;8.53;;;;;;;15.18;79.33;100178.63;5041603;28;20070;-73
2023/05/23 07:30:41;;;;;;;16.52;8.75;;;;;;;15.19;79.44;100177.56;5041031;28;20707;-73
2023/05/23 07:33:07;;;;;;;17.98;9.57;;;;;;;15.43;78.34;100185.06;5041452;28;20033;-76
2023/05/23 07:35:32;;;;;;;16.75;10.60;;;;;;;15.41;78.10;100176.28;5042093;28;20036;-75
2023/05/23 07:37:57;;;;;;;18.48;10.45;;;;;;;15.31;78.39;100182.69;5044000;28;20061;-77
2023/05/23 07:40:22;;;;;;;28.00;11.03;;;;;;;15.46;78.48;100189.97;5046408;28;20033;-75
2023/05/23 07:42:48;;;;;;;21.33;10.43;;;;;;;15.61;77.33;100196.44;5045926;28;20344;-75
2023/05/23 07:45:13;;;;;;;18.80;9.43;;;;;;;15.67;76.92;100197.19;5045971;28;20128;-76
2023/05/23 07:47:40;;;;;;;14.52;8.65;;;;;;;15.51;77.72;100191.84;5046302;28;20033;-75
2023/05/23 07:50:06;;;;;;;18.98;8.00;;;;;;;15.26;78.88;100197.25;5044026;28;20033;-75
2023/05/23 07:52:31;;;;;;;18.00;8.68;;;;;;;15.27;78.95;100204.41;5045841;28;20043;-75
2023/05/23 07:54:57;;;;;;;21.17;11.25;;;;;;;15.52;77.76;100198.97;5046198;28;20037;-75
2023/05/23 07:57:23;;;;;;;22.63;8.10;;;;;;;15.49;77.52;100214.13;5046157;28;20314;-75
2023/05/23 07:59:48;;;;;;;17.40;8.40;;;;;;;15.62;77.09;100209.09;5045406;28;20037;-75
2023/05/23 08:02:14;;;;;;;17.55;9.02;;;;;;;15.55;76.99;100203.09;5045585;28;20032;-74
2023/05/23 08:04:39;;;;;;;17.07;8.13;;;;;;;15.52;77.33;100205.28;5045927;28;20376;-75
2023/05/23 08:07:04;;;;;;;14.20;6.83;;;;;;;15.57;76.45;100209.09;5045682;28;20265;-76
2023/05/23 08:09:30;;;;;;;21.67;9.55;;;;;;;15.52;76.67;100205.28;5045319;28;20274;-75
2023/05/23 08:11:55;;;;;;;12.88;7.68;;;;;;;15.58;76.68;100208.00;5045519;28;20144;-73
2023/05/23 08:14:21;;;;;;;17.97;8.03;;;;;;;15.67;76.42;100208.19;5045248;28;20040;-74
2023/05/23 08:16:46;;;;;;;15.68;7.95;;;;;;;15.80;76.15;100209.47;5045347;28;20315;-75
2023/05/23 08:19:12;;;;;;;13.47;6.63;;;;;;;15.74;76.41;100222.44;5044646;28;20033;-75
2023/05/23 08:21:37;;;;;;;22.87;7.30;;;;;;;15.83;75.62;100217.13;5045377;28;20294;-76
2023/05/23 08:24:02;;;;;;;14.23;8.10;;;;;;;15.68;75.97;100213.41;5045345;28;20262;-74
2023/05/23 08:26:33;;;;;;;14.65;7.00;;;;;;;15.57;75.55;100222.84;5045805;28;20262;-75
2023/05/23 08:29:01;;;;;;;20.98;9.10;;;;;;;15.82;75.87;100221.00;5044653;28;20548;-75
2023/05/23 08:31:31;;;;;;;14.82;8.30;;;;;;;16.00;74.91;100227.69;5045107;28;20041;-74
2023/05/23 08:33:57;;;;;;;16.08;8.05;;;;;;;15.81;74.62;100235.84;5044904;28;20029;-74
2023/05/23 08:36:23;;;;;;;20.20;7.35;;;;;;;15.95;74.79;100233.22;5045016;28;20695;-76
2023/05/23 08:38:50;;;;;;;18.70;7.25;;;;;;;15.90;74.97;100227.78;5043272;28;20033;-74
2023/05/23 08:41:19;;;;;;;16.23;7.85;;;;;;;16.19;74.43;100225.03;5045251;28;20032;-74
2023/05/23 08:43:44;;;;;;;16.92;6.90;;;;;;;16.16;73.62;100228.38;5044130;28;20486;-74
2023/05/23 08:46:11;;;;;;;13.60;7.72;;;;;;;16.16;74.07;100233.88;5044802;28;20033;-73
2023/05/23 08:48:37;;;;;;;18.23;8.25;;;;;;;15.78;75.42;100240.00;5043847;28;20037;-75
2023/05/23 08:51:03;;;;;;;12.63;7.85;;;;;;;15.79;75.21;100235.31;5044574;28;20028;-76
2023/05/23 08:53:31;;;;;;;14.25;8.13;;;;;;;15.58;76.04;100246.50;5045396;28;20116;-73
2023/05/23 08:56:01;;;;;;;20.35;7.45;;;;;;;15.57;75.65;100253.91;5044040;28;20398;-75
2023/05/23 08:58:28;;;;;;;14.80;7.72;;;;;;;15.49;76.24;100249.84;5044850;28;20037;-75
2023/05/23 09:00:54;;;;;;;14.55;7.80;;;;;;;15.51;76.33;100257.78;5044658;28;20025;-75
2023/05/23 09:03:20;;;;;;;14.05;8.23;;;;;;;15.70;76.42;100252.41;5044584;28;20048;-76
2023/05/23 09:05:46;;;;;;;13.15;6.38;;;;;;;15.87;75.10;100268.50;5044153;28;20120;-76
2023/05/23 09:08:12;;;;;;;18.35;7.53;;;;;;;15.66;75.38;100258.78;5044483;28;20040;-75
2023/05/23 09:10:39;;;;;;;15.15;6.95;;;;;;;15.61;75.58;100273.38;5044464;28;20501;-75
2023/05/23 09:13:04;;;;;;;10.15;6.32;;;;;;;15.47;76.29;100270.47;5044621;28;20440;-75
2023/05/23 09:15:30;;;;;;;15.70;7.57;;;;;;;15.30;77.25;100271.66;5044413;28;20028;-74
2023/05/23 09:18:03;;;;;;;16.35;7.25;;;;;;;15.55;75.92;100275.34;5043789;28;20041;-74
2023/05/23 09:20:28;;;;;;;15.05;8.02;;;;;;;15.59;75.56;100265.44;5044658;28;20044;-75
2023/05/23 09:22:54;;;;;;;15.82;7.22;;;;;;;15.61;75.51;100274.22;5044208;28;20057;-74
2023/05/23 09:25:19;;;;;;;14.75;7.60;;;;;;;15.42;75.04;100276.00;5044713;28;20037;-75
2023/05/23 09:27:45;;;;;;;13.80;7.97;;;;;;;15.47;75.18;100285.03;5044689;28;20073;-76
2023/05/23 09:30:11;;;;;;;15.02;6.78;;;;;;;15.25;75.49;100278.03;5044008;28;20040;-74
2023/05/23 09:32:37;;;;;;;16.63;7.53;;;;;;;15.26;74.62;100293.38;5043287;28;20150;-75
2023/05/23 09:35:10;;;;;;;24.45;10.50;;;;;;;15.16;75.37;100296.19;5044202;28;20028;-75
2023/05/23 09:37:47;;;;;;;13.98;8.23;;;;;;;15.15;76.05;100289.06;5044367;28;20044;-75
2023/05/23 09:40:13;;;;;;;17.15;7.20;;;;;;;15.15;75.38;100300.06;5044206;28;20041;-74
2023/05/23 09:42:43;;;;;;;15.27;6.65;;;;;;;14.89;76.20;100291.94;5044197;28;20540;-74
2023/05/23 09:45:10;;;;;;;17.27;6.97;;;;;;;15.26;75.67;100298.88;5044285;28;20147;-77
2023/05/23 09:47:35;;;;;;;17.88;9.68;;;;;;;15.21;74.98;100298.09;5043884;28;20505;-75
2023/05/23 09:50:01;;;;;;;23.70;8.65;;;;;;;15.03;75.89;100298.44;5043436;28;20033;-74
2023/05/23 09:52:26;;;;;;;14.07;6.88;;;;;;;15.49;74.15;100303.97;5044150;28;20033;-75
2023/05/23 09:54:53;;;;;;;20.15;7.78;;;;;;;15.71;73.35;100309.03;5043724;28;20414;-74
2023/05/23 09:57:21;;;;;;;19.48;7.32;;;;;;;15.75;72.55;100306.53;5044055;28;20532;-74
2023/05/23 09:59:55;;;;;;;19.55;8.32;;;;;;;15.70;71.57;100303.81;5043405;28;20071;-74
2023/05/23 10:02:52;;;;;;;11.77;5.43;;;;;;;15.59;71.88;100309.41;5043096;28;20036;-74
2023/05/23 10:05:39;;;;;;;13.30;6.18;;;;;;;15.64;72.00;100308.56;5043642;28;20041;-75
2023/05/23 10:08:13;;;;;;;22.92;9.05;;;;;;;15.74;71.47;100315.91;5043425;28;20544;-75
2023/05/23 10:11:31;;;;;;;19.20;7.55;;;;;;;15.48;70.76;100310.56;5043856;28;20033;-75
2023/05/23 10:13:58;;;;;;;16.38;6.63;;;;;;;15.55;70.74;100307.50;5011590;28;20040;-75
2023/05/23 10:16:37;;;;;;;13.63;6.45;;;;;;;15.64;71.29;100301.09;5043504;28;20599;-74
2023/05/23 10:19:16;;;;;;;18.75;7.30;;;;;;;15.17;71.11;100306.09;5042466;28;20064;-75
2023/05/23 10:21:47;;;;;;;21.10;7.72;;;;;;;15.13;72.91;100313.25;5042235;28;20055;-75
2023/05/23 10:24:13;;;;;;;14.60;7.00;;;;;;;15.50;71.33;100316.59;5043109;28;20040;-74
2023/05/23 10:26:39;;;;;;;15.25;7.35;;;;;;;15.54;71.27;100322.34;5042754;28;20036;-75
2023/05/23 10:29:06;;;;;;;23.60;10.48;;;;;;;15.16;72.18;100323.66;5041784;28;20470;-74
2023/05/23 10:31:32;;;;;;;17.30;8.02;;;;;;;15.25;72.78;100324.72;5042932;28;20036;-75
2023/05/23 10:34:08;;;;;;;17.27;6.40;;;;;;;15.21;72.37;100337.38;5042730;28;20040;-74
2023/05/23 10:36:53;;;;;;;16.98;8.13;;;;;;;15.11;72.33;100329.97;5042669;28;20037;-73
2023/05/23 10:39:33;;;;;;;24.85;11.02;;;;;;;14.78;73.59;100335.03;5042176;28;20037;-75
2023/05/23 10:42:03;;;;;;;19.17;8.65;;;;;;;14.75;74.24;100339.16;5042398;28;20142;-75
2023/05/23 10:44:29;;;;;;;21.13;8.98;;;;;;;14.80;74.17;100330.91;5042432;28;20029;-74
2023/05/23 10:47:02;;;;;;;24.45;9.73;;;;;;;14.68;74.31;100338.63;5042574;28;20032;-75
2023/05/23 10:49:41;;;;;;;18.48;10.27;;;;;;;15.02;73.13;100348.16;5042563;28;20037;-74
2023/05/23 10:52:07;;;;;;;19.30;9.63;;;;;;;15.00;73.17;100356.69;5042100;28;20041;-74
2023/05/23 10:54:42;;;;;;;22.00;9.10;;;;;;;14.71;72.18;100360.84;5040814;28;20099;-73
2023/05/23 10:57:09;;;;;;;19.50;9.52;;;;;;;14.42;72.80;100363.38;5042490;28;20576;-73
2023/05/23 10:59:37;;;;;;;25.10;9.23;;;;;;;14.71;72.30;100360.00;5042003;28;20448;-75
2023/05/23 11:02:08;;;;;;;21.02;8.77;;;;;;;14.95;71.28;100367.66;5040593;28;20317;-76
2023/05/23 11:04:33;;;;;;;16.10;7.97;;;;;;;15.19;69.13;100371.69;5042900;28;20037;-75
2023/05/23 11:06:59;;;;;;;21.77;9.07;;;;;;;15.24;70.05;100374.41;5042764;28;20074;-76
2023/05/23 11:09:24;;;;;;;13.30;7.13;;;;;;;15.57;69.65;100373.97;5042317;28;20777;-76
2023/05/23 11:11:49;;;;;;;21.00;8.10;;;;;;;15.74;68.51;100371.66;5042088;28;20266;-74
2023/05/23 11:14:15;;;;;;;15.73;6.88;;;;;;;15.91;67.58;100369.63;5042478;28;20040;-74
2023/05/23 11:16:42;;;;;;;18.00;6.68;;;;;;;16.04;66.78;100365.44;5042885;28;20040;-75